Time;durP1;ratioP1;P1;durP2;ratioP2;P2;SDS_P1;SDS_P2;PMS_P1;PMS_P2;Temp;Humidity;BMP_temperature;BMP_pressure;BME280_temperature;BME280_humidity;BME280_pressure;Samples;Min_cycle;Max_cycle;Signal;HPM_P1;HPM_P2
2023/10/09 00:00:50;;;;;;;12.77;9.05;;;;;;;24.41;58.28;99544.16;2073213;28;20507;-67
2023/10/09 00:01:51;;;;;;;13.23;9.02;;;;;;;24.41;58.03;99544.97;2079679;28;20045;-67
2023/10/09 00:02:53;;;;;;;13.13;8.30;;;;;;;24.43;57.98;99542.03;2076735;28;20049;-67
2023/10/09 00:03:55;;;;;;;13.32;8.63;;;;;;;24.44;57.83;99541.84;2080527;28;20549;-67
2023/10/09 00:04:57;;;;;;;11.27;9.38;;;;;;;24.44;57.94;99541.84;2081061;28;20120;-67
2023/10/09 00:05:58;;;;;;;12.60;9.15;;;;;;;24.43;57.96;99542.03;2076426;28;20041;-67
2023/10/09 00:07:00;;;;;;;14.27;8.82;;;;;;;24.44;58.42;99541.03;2081171;28;20348;-67
2023/10/09 00:08:03;;;;;;;19.42;9.00;;;;;;;24.43;57.98;99542.91;2081074;28;20049;-67
2023/10/09 00:09:17;;;;;;;12.80;9.98;;;;;;;24.42;58.05;99541.19;2078918;28;20037;-67
2023/10/09 00:10:19;;;;;;;12.55;9.40;;;;;;;24.33;58.79;99542.53;2080684;28;20117;-67
2023/10/09 00:11:23;;;;;;;13.57;9.70;;;;;;;24.33;58.64;99537.09;2078120;28;20060;-67
2023/10/09 00:12:25;;;;;;;12.23;9.00;;;;;;;24.34;58.19;99538.75;2082248;28;20095;-67
2023/10/09 00:13:28;;;;;;;15.35;10.15;;;;;;;24.37;58.27;99537.50;2076856;28;20427;-67
2023/10/09 00:14:34;;;;;;;14.07;8.77;;;;;;;24.39;58.04;99547.06;2082948;28;20056;-66
2023/10/09 00:15:35;;;;;;;13.30;9.07;;;;;;;24.39;58.15;99543.53;2079441;28;20045;-67
2023/10/09 00:16:43;;;;;;;13.57;9.10;;;;;;;24.41;57.87;99530.59;2079341;28;20684;-66
2023/10/09 00:17:46;;;;;;;14.25;9.43;;;;;;;24.42;58.08;99543.91;2083388;28;20477;-67
2023/10/09 00:18:49;;;;;;;11.15;8.85;;;;;;;24.41;57.63;99539.56;2076994;28;20463;-67
2023/10/09 00:19:51;;;;;;;10.82;8.70;;;;;;;24.43;57.80;99536.59;2080994;28;20041;-66
2023/10/09 00:20:55;;;;;;;11.90;8.43;;;;;;;24.43;57.61;99540.19;2076913;28;20516;-66
2023/10/09 00:21:58;;;;;;;12.98;9.38;;;;;;;24.44;57.97;99538.31;2079034;28;20037;-67
2023/10/09 00:23:00;;;;;;;12.43;8.52;;;;;;;24.43;57.93;99537.50;2079746;28;20055;-67
2023/10/09 00:24:05;;;;;;;14.68;8.90;;;;;;;24.44;57.79;99539.16;2082215;28;20048;-67
2023/10/09 00:25:14;;;;;;;15.85;10.35;;;;;;;24.41;57.78;99534.13;2079694;28;20061;-68
2023/10/09 00:26:16;;;;;;;15.52;10.15;;;;;;;24.40;58.36;99535.16;2076930;28;20042;-67
2023/10/09 00:27:19;;;;;;;13.43;10.38;;;;;;;24.42;57.88;99534.94;2080278;28;20066;-68
2023/10/09 00:28:22;;;;;;;13.82;9.20;;;;;;;24.44;58.20;99525.59;2080857;28;20064;-68
2023/10/09 00:29:28;;;;;;;18.38;11.30;;;;;;;24.41;58.42;99526.00;2077060;28;20684;-68
2023/10/09 00:30:30;;;;;;;16.23;10.15;;;;;;;24.37;58.07;99529.34;2077064;28;20132;-67
2023/10/09 00:31:33;;;;;;;18.73;10.68;;;;;;;24.38;58.64;99528.31;2078676;28;20156;-67
2023/10/09 00:32:37;;;;;;;19.50;11.05;;;;;;;24.30;58.83;99524.00;2081009;28;20053;-68
2023/10/09 00:33:39;;;;;;;21.40;13.00;;;;;;;24.25;59.20;99524.63;2081535;28;20048;-66
2023/10/09 00:34:40;;;;;;;21.23;12.93;;;;;;;24.26;58.93;99529.00;2077656;28;20045;-67
2023/10/09 00:35:54;;;;;;;19.27;11.98;;;;;;;24.27;59.10;99525.25;2079994;28;20563;-67
2023/10/09 00:36:57;;;;;;;22.73;13.82;;;;;;;24.24;58.93;99523.00;2079826;28;20070;-65
2023/10/09 00:38:06;;;;;;;18.08;11.40;;;;;;;24.28;58.62;99521.50;2078324;28;20067;-67
2023/10/09 00:39:18;;;;;;;21.50;12.15;;;;;;;24.29;58.46;99516.88;2082415;28;20064;-67
2023/10/09 00:40:27;;;;;;;17.60;11.98;;;;;;;24.31;58.57;99512.09;2077956;28;20048;-67
2023/10/09 00:41:29;;;;;;;15.07;11.07;;;;;;;24.33;58.16;99523.56;2080256;28;20084;-66
2023/10/09 00:42:33;;;;;;;18.83;11.50;;;;;;;24.35;58.02;99516.03;2078839;28;20102;-67
2023/10/09 00:43:35;;;;;;;16.15;10.48;;;;;;;24.36;58.17;99517.69;2079935;28;20110;-68
2023/10/09 00:44:42;;;;;;;15.02;10.40;;;;;;;24.38;58.00;99517.47;2077912;28;20058;-68
2023/10/09 00:45:44;;;;;;;19.05;12.27;;;;;;;24.35;58.25;99513.31;2081832;28;20052;-67
2023/10/09 00:46:47;;;;;;;17.63;11.15;;;;;;;24.31;58.49;99514.81;2080318;28;20075;-67
2023/10/09 00:47:49;;;;;;;14.52;10.20;;;;;;;24.34;58.45;99514.34;2081341;28;20102;-67
2023/10/09 00:48:53;;;;;;;20.10;11.43;;;;;;;24.38;58.28;99522.91;2079146;28;20044;-67
2023/10/09 00:50:00;;;;;;;21.50;11.93;;;;;;;24.37;58.26;99513.91;2078832;28;20060;-66
2023/10/09 00:51:03;;;;;;;16.48;11.13;;;;;;;24.34;58.09;99510.81;2080382;28;20053;-68
2023/10/09 00:52:12;;;;;;;21.00;13.13;;;;;;;24.33;58.57;99515.41;2079380;28;20053;-68
2023/10/09 00:53:18;;;;;;;17.08;11.00;;;;;;;24.34;58.62;99511.66;2077197;28;20102;-67
2023/10/09 00:54:19;;;;;;;17.13;13.13;;;;;;;24.33;58.54;99509.16;2078678;28;20125;-67
2023/10/09 00:55:36;;;;;;;17.23;11.00;;;;;;;24.36;58.29;99514.97;2081569;28;20063;-65
2023/10/09 00:56:39;;;;;;;17.85;10.65;;;;;;;24.33;58.28;99510.00;2075206;28;20114;-67
2023/10/09 00:57:50;;;;;;;16.67;11.45;;;;;;;24.38;58.30;99514.78;2078085;28;20695;-68
2023/10/09 00:58:55;;;;;;;;;;;;;;;24.23;58.35;99510.47;2080316;28;20045;-67
2023/10/09 01:00:00;;;;;;;17.88;10.68;;;;;;;24.27;58.53;99508.16;2080297;28;19920;-67
2023/10/09 01:01:04;;;;;;;15.43;11.10;;;;;;;24.28;58.15;99507.94;2077706;28;20060;-66
2023/10/09 01:02:07;;;;;;;17.80;11.43;;;;;;;24.33;58.30;99506.47;2082312;28;20069;-67
2023/10/09 01:03:19;;;;;;;18.15;11.02;;;;;;;24.35;58.26;99510.63;2077373;28;20137;-66
2023/10/09 01:04:19;;;;;;;17.20;12.13;;;;;;;24.34;58.29;99505.41;2079622;28;20061;-67
2023/10/09 01:05:26;;;;;;;17.15;11.18;;;;;;;24.35;58.28;99504.34;2076084;28;20064;-67
2023/10/09 01:06:33;;;;;;;21.65;13.35;;;;;;;24.37;58.22;99510.38;2079222;28;20049;-68
2023/10/09 01:07:35;;;;;;;15.30;10.27;;;;;;;24.36;57.86;99509.56;2078596;28;20065;-68
2023/10/09 01:08:43;;;;;;;16.13;10.30;;;;;;;24.35;58.16;99507.03;2081564;28;20499;-67
2023/10/09 01:09:45;;;;;;;17.63;11.38;;;;;;;24.39;58.02;99508.28;2078968;28;20052;-68
2023/10/09 01:10:52;;;;;;;17.95;11.38;;;;;;;24.39;58.05;99505.56;2077614;28;20037;-67
2023/10/09 01:12:04;;;;;;;20.85;12.07;;;;;;;24.37;57.85;99504.97;2078386;28;20041;-67
2023/10/09 01:13:05;;;;;;;17.83;10.45;;;;;;;24.34;57.86;99506.22;2079847;28;20056;-67
2023/10/09 01:14:12;;;;;;;13.73;10.68;;;;;;;24.36;57.95;99506.84;2077225;28;20045;-67
2023/10/09 01:15:35;;;;;;;19.83;11.55;;;;;;;24.36;58.00;99508.72;2079104;28;20752;-67
2023/10/09 01:16:36;;;;;;;15.23;11.77;;;;;;;24.31;58.53;99510.19;2079269;28;20629;-68
2023/10/09 01:17:45;;;;;;;16.77;11.45;;;;;;;24.35;58.16;99509.75;2077386;28;20056;-67
2023/10/09 01:18:49;;;;;;;15.45;11.00;;;;;;;24.35;58.16;99507.03;2077219;28;20049;-67
2023/10/09 01:19:55;;;;;;;15.45;10.07;;;;;;;24.34;58.24;99503.50;2081132;28;20542;-67
2023/10/09 01:20:57;;;;;;;15.25;10.70;;;;;;;24.34;58.27;99503.50;2077457;28;20057;-67
2023/10/09 01:22:04;;;;;;;19.77;10.93;;;;;;;24.38;57.79;99503.94;2076108;28;20041;-67
2023/10/09 01:23:09;;;;;;;19.58;9.32;;;;;;;24.35;58.20;99502.47;2072243;28;20075;-68
2023/10/09 01:24:10;;;;;;;18.33;11.63;;;;;;;24.38;58.13;99498.50;2080749;28;20044;-68
2023/10/09 01:25:12;;;;;;;16.50;11.27;;;;;;;24.38;57.84;99496.63;2080314;28;20416;-66
2023/10/09 01:26:12;;;;;;;19.00;12.02;;;;;;;24.38;58.15;99495.78;2076603;28;20057;-66
2023/10/09 01:27:15;;;;;;;17.23;10.63;;;;;;;24.37;58.01;99494.94;2077619;28;20571;-67
2023/10/09 01:28:16;;;;;;;17.02;10.73;;;;;;;24.38;57.93;99487.66;2077003;28;20069;-65
2023/10/09 01:29:21;;;;;;;19.05;10.07;;;;;;;24.40;57.76;99490.94;2078093;28;20055;-66
2023/10/09 01:30:23;;;;;;;16.80;10.30;;;;;;;24.38;57.54;99490.38;2078096;28;20050;-68
2023/10/09 01:31:26;;;;;;;16.15;9.88;;;;;;;24.38;58.20;99491.19;2077412;28;20494;-68
2023/10/09 01:32:27;;;;;;;16.63;10.73;;;;;;;24.37;58.11;99484.09;2077390;28;20049;-68
2023/10/09 01:33:30;;;;;;;14.60;10.90;;;;;;;24.38;58.21;99488.47;2082359;28;20527;-67
2023/10/09 01:34:41;;;;;;;16.15;11.27;;;;;;;24.37;57.79;99484.09;2080208;28;20057;-67
2023/10/09 01:35:48;;;;;;;15.43;10.60;;;;;;;24.35;57.92;99493.50;2080395;28;20519;-68
2023/10/09 01:36:49;;;;;;;15.05;10.93;;;;;;;24.35;58.00;99482.66;2079959;28;20045;-67
2023/10/09 01:37:51;;;;;;;17.67;10.80;;;;;;;24.34;57.87;99484.53;2077293;28;20049;-67
2023/10/09 01:38:53;;;;;;;16.63;11.77;;;;;;;24.37;57.91;99485.97;2077915;28;20041;-67
2023/10/09 01:39:59;;;;;;;16.80;11.20;;;;;;;24.37;58.25;99489.50;2080726;28;20045;-66
2023/10/09 01:41:06;;;;;;;18.08;12.38;;;;;;;24.35;58.09;99486.22;2078077;28;20049;-67
2023/10/09 01:42:09;;;;;;;16.55;11.48;;;;;;;24.36;57.90;99487.88;2076678;28;20104;-66
2023/10/09 01:43:10;;;;;;;17.35;11.05;;;;;;;24.35;58.13;99485.34;2078622;28;20056;-67
2023/10/09 01:44:12;;;;;;;17.52;12.20;;;;;;;24.33;58.08;99492.91;2078316;28;20091;-67
2023/10/09 01:45:16;;;;;;;14.27;10.40;;;;;;;24.36;57.79;99487.88;2077600;28;20053;-68
2023/10/09 01:46:19;;;;;;;15.63;11.57;;;;;;;24.34;57.96;99484.53;2077097;28;20120;-67
2023/10/09 01:47:21;;;;;;;19.75;11.20;;;;;;;24.35;57.89;99485.34;2080602;28;20049;-64
2023/10/09 01:48:24;;;;;;;18.30;11.40;;;;;;;24.35;58.11;99486.22;2079866;28;20149;-68
2023/10/09 01:49:31;;;;;;;17.38;11.00;;;;;;;24.35;57.83;99491.63;2078981;28;20161;-65
2023/10/09 01:50:35;;;;;;;15.15;10.40;;;;;;;24.35;58.05;99488.06;2080612;28;20096;-67
2023/10/09 01:51:38;;;;;;;17.08;11.23;;;;;;;24.35;58.33;99490.78;2079909;28;20428;-68
2023/10/09 01:52:42;;;;;;;18.85;11.23;;;;;;;24.34;58.20;99487.25;2080080;28;20689;-67
2023/10/09 01:53:44;;;;;;;16.25;11.00;;;;;;;24.35;57.97;99488.06;2077902;28;20056;-66
2023/10/09 01:54:51;;;;;;;18.05;11.57;;;;;;;24.33;57.99;99487.47;2079255;28;20113;-68
2023/10/09 01:55:55;;;;;;;14.65;11.20;;;;;;;24.28;57.93;99488.94;2080006;28;20042;-67
2023/10/09 01:56:57;;;;;;;20.38;11.25;;;;;;;24.30;58.11;99489.56;2079411;28;20072;-66
2023/10/09 01:57:58;;;;;;;22.20;10.70;;;;;;;24.31;57.91;99485.81;2078634;28;20041;-67
2023/10/09 01:59:05;;;;;;;17.98;12.02;;;;;;;24.29;58.12;99493.34;2079835;28;20839;-67
2023/10/09 02:00:07;;;;;;;16.35;10.80;;;;;;;24.33;58.31;99490.19;2080041;28;20506;-68
2023/10/09 02:01:09;;;;;;;17.38;11.10;;;;;;;24.29;58.22;99493.34;2078373;28;20063;-67
2023/10/09 02:02:25;;;;;;;14.55;11.23;;;;;;;24.31;58.07;99491.22;2080091;28;20053;-67
2023/10/09 02:03:29;;;;;;;19.23;11.77;;;;;;;24.29;58.09;99493.34;2079043;28;20049;-66
2023/10/09 02:04:29;;;;;;;17.48;11.82;;;;;;;24.30;58.21;99488.75;2079807;28;20145;-67
2023/10/09 02:05:33;;;;;;;14.63;11.30;;;;;;;24.33;58.03;99490.19;2078257;28;20045;-67
2023/10/09 02:06:37;;;;;;;18.77;11.35;;;;;;;24.33;58.05;99482.06;2075710;28;20053;-67
2023/10/09 02:07:44;;;;;;;17.90;12.40;;;;;;;24.33;58.11;99487.47;2079350;28;20057;-67
2023/10/09 02:08:49;;;;;;;19.85;12.07;;;;;;;24.30;58.26;99486.03;2078619;28;20120;-67
2023/10/09 02:09:53;;;;;;;17.42;11.20;;;;;;;24.32;58.10;99494.75;2077747;28;20045;-66
2023/10/09 02:10:55;;;;;;;18.73;12.98;;;;;;;24.34;58.19;99497.25;2077743;28;20052;-67
2023/10/09 02:11:57;;;;;;;19.65;12.07;;;;;;;24.33;58.50;99488.31;2077894;28;20052;-67
2023/10/09 02:13:00;;;;;;;17.42;11.30;;;;;;;24.33;58.44;99482.88;2076723;28;20049;-67
2023/10/09 02:14:02;;;;;;;14.73;11.13;;;;;;;24.34;58.32;99489.94;2076259;28;20041;-67
2023/10/09 02:15:15;;;;;;;16.67;11.55;;;;;;;24.31;58.27;99491.22;2077106;28;20558;-67
2023/10/09 02:16:28;;;;;;;15.55;11.00;;;;;;;24.31;58.21;99488.50;2078656;28;20041;-68
2023/10/09 02:17:29;;;;;;;17.30;12.18;;;;;;;24.28;58.42;99488.13;2079356;28;20058;-67
2023/10/09 02:18:52;;;;;;;18.48;12.23;;;;;;;24.28;58.09;99490.84;2078667;28;20079;-68
2023/10/09 02:19:53;;;;;;;16.63;11.75;;;;;;;24.25;58.28;99492.13;2081946;28;20148;-67
2023/10/09 02:21:13;;;;;;;15.63;11.55;;;;;;;24.28;58.30;99488.94;2079838;28;20519;-68
2023/10/09 02:22:14;;;;;;;18.77;11.70;;;;;;;24.29;57.86;99493.34;2079645;28;20037;-69
2023/10/09 02:23:17;;;;;;;14.52;11.23;;;;;;;24.29;57.97;99490.63;2082002;28;20141;-69
2023/10/09 02:24:41;;;;;;;15.65;11.35;;;;;;;24.33;57.71;99496.44;2077935;28;20061;-68
2023/10/09 02:25:45;;;;;;;18.20;10.93;;;;;;;24.29;58.14;99498.78;2078096;28;20044;-69
2023/10/09 02:28:05;;;;;;;15.57;11.30;;;;;;;24.29;57.88;99498.78;2079356;28;20060;-68
2023/10/09 02:29:15;;;;;;;16.35;11.45;;;;;;;24.29;58.17;99493.34;2078449;28;20057;-68
2023/10/09 02:30:18;;;;;;;15.68;11.73;;;;;;;24.33;57.71;99492.91;2078459;28;20128;-68
2023/10/09 02:31:22;;;;;;;18.40;11.10;;;;;;;24.34;58.19;99489.94;2082386;28;20048;-69
2023/10/09 02:32:25;;;;;;;14.32;10.48;;;;;;;24.33;58.03;99495.63;2078512;28;20057;-68
2023/10/09 02:33:28;;;;;;;18.73;11.95;;;;;;;24.32;58.19;99497.47;2079315;28;20056;-68
2023/10/09 02:34:29;;;;;;;16.27;11.45;;;;;;;24.28;57.97;99494.38;2081104;28;20558;-68
2023/10/09 02:35:38;;;;;;;16.17;11.65;;;;;;;24.33;57.95;99504.56;2080611;28;20501;-68
2023/10/09 02:36:49;;;;;;;13.93;11.23;;;;;;;24.29;58.43;99496.06;2079117;28;20164;-69
2023/10/09 02:37:49;;;;;;;17.52;12.43;;;;;;;24.30;58.22;99499.59;2082030;28;20049;-68
2023/10/09 02:38:53;;;;;;;16.77;12.30;;;;;;;24.35;57.87;99502.47;2080804;28;20152;-68
2023/10/09 02:39:54;;;;;;;16.70;12.05;;;;;;;24.36;58.04;99498.72;2079333;28;20153;-68
2023/10/09 02:42:28;;;;;;;16.83;11.52;;;;;;;24.31;58.42;99502.06;2077391;28;20041;-68
2023/10/09 02:43:33;;;;;;;17.95;12.45;;;;;;;24.32;58.06;99505.59;2079527;28;20436;-68
2023/10/09 02:44:39;;;;;;;15.68;11.50;;;;;;;24.34;58.10;99506.22;2079186;28;20858;-69
2023/10/09 02:45:50;;;;;;;17.42;12.52;;;;;;;24.34;57.79;99499.97;2079078;28;20442;-69
2023/10/09 02:46:50;;;;;;;18.30;11.85;;;;;;;24.28;58.07;99499.81;2078301;28;20047;-68
2023/10/09 02:47:55;;;;;;;20.90;11.45;;;;;;;24.33;57.93;99499.16;2078895;28;20172;-69
2023/10/09 02:48:57;;;;;;;15.93;11.02;;;;;;;24.33;57.80;99496.44;2078397;28;20056;-68
2023/10/09 02:50:06;;;;;;;15.95;11.68;;;;;;;24.33;57.93;99499.16;2080183;28;20527;-68
2023/10/09 02:51:08;;;;;;;15.07;11.65;;;;;;;24.32;57.98;99502.88;2078543;28;20408;-69
2023/10/09 02:52:11;;;;;;;17.25;12.23;;;;;;;24.33;57.98;99498.31;2081220;28;20060;-68
2023/10/09 02:53:18;;;;;;;17.33;12.60;;;;;;;24.29;58.06;99497.91;2078289;28;20598;-68
2023/10/09 02:54:31;;;;;;;17.10;11.70;;;;;;;24.30;58.21;99500.41;2080290;28;20052;-69
2023/10/09 02:55:38;;;;;;;14.90;11.05;;;;;;;24.31;58.08;99502.06;2082170;28;20037;-69
2023/10/09 02:56:43;;;;;;;15.35;11.85;;;;;;;24.32;57.59;99497.47;2078396;28;20054;-69
2023/10/09 02:57:45;;;;;;;17.13;11.80;;;;;;;24.35;57.48;99496.19;2081463;28;20519;-68
2023/10/09 02:58:48;;;;;;;16.95;11.30;;;;;;;24.33;58.10;99503.75;2080733;28;20586;-68
2023/10/09 02:59:51;;;;;;;18.17;12.98;;;;;;;24.31;57.95;99493.94;2080349;28;20395;-68
2023/10/09 03:00:53;;;;;;;17.42;11.80;;;;;;;24.30;57.80;99505.84;2081986;28;20418;-68
2023/10/09 03:01:53;;;;;;;21.13;12.10;;;;;;;24.29;58.13;99500.63;2077092;28;20048;-68
2023/10/09 03:02:58;;;;;;;18.23;11.60;;;;;;;24.31;57.95;99507.50;2082323;28;20093;-66
2023/10/09 03:04:02;;;;;;;16.17;12.35;;;;;;;24.29;58.00;99503.34;2081239;28;20784;-66
2023/10/09 03:05:04;;;;;;;20.98;12.48;;;;;;;24.27;57.90;99511.69;2084161;28;20041;-67
2023/10/09 03:06:11;;;;;;;15.45;11.77;;;;;;;24.29;58.25;99512.31;2081618;28;20053;-66
2023/10/09 03:07:13;;;;;;;17.17;11.02;;;;;;;24.31;57.68;99512.09;2081596;28;20076;-68
2023/10/09 03:08:16;;;;;;;15.15;11.32;;;;;;;24.33;57.72;99512.72;2080994;28;20151;-67
2023/10/09 03:09:17;;;;;;;18.05;11.13;;;;;;;24.33;57.81;99515.41;2083113;28;20748;-67
2023/10/09 03:10:19;;;;;;;18.75;12.18;;;;;;;24.35;57.51;99501.63;2082520;28;20056;-67
2023/10/09 03:11:20;;;;;;;17.13;11.63;;;;;;;24.37;57.75;99510.38;2082656;28;20558;-67
2023/10/09 03:12:26;;;;;;;13.43;10.52;;;;;;;24.39;57.81;99508.28;2078939;28;20053;-67
2023/10/09 03:13:28;;;;;;;19.45;12.48;;;;;;;24.38;57.79;99504.75;2083282;28;20049;-67
2023/10/09 03:14:31;;;;;;;17.67;10.98;;;;;;;24.38;57.58;99512.88;2078942;28;20042;-68
2023/10/09 03:15:35;;;;;;;14.02;11.40;;;;;;;24.35;57.46;99507.03;2080890;28;20050;-67
2023/10/09 03:16:38;;;;;;;16.88;11.55;;;;;;;24.33;58.03;99510.00;2082465;28;20053;-67
2023/10/09 03:17:38;;;;;;;15.38;12.05;;;;;;;24.33;57.79;99515.41;2079959;28;20049;-69
2023/10/09 03:18:40;;;;;;;16.02;10.00;;;;;;;24.30;58.14;99516.69;2082262;28;20063;-66
2023/10/09 03:19:43;;;;;;;15.32;11.23;;;;;;;24.29;58.01;99514.19;2083897;28;20064;-67
2023/10/09 03:20:44;;;;;;;17.90;12.85;;;;;;;24.27;58.18;99511.69;2084982;28;20488;-66
2023/10/09 03:21:46;;;;;;;19.73;11.82;;;;;;;24.30;57.67;99513.97;2085035;28;20056;-67
2023/10/09 03:22:49;;;;;;;19.55;11.70;;;;;;;24.28;57.81;99513.34;2084889;28;20052;-67
2023/10/09 03:23:50;;;;;;;15.43;10.30;;;;;;;24.28;58.10;99521.50;2082198;28;20109;-67
2023/10/09 03:24:52;;;;;;;15.00;10.63;;;;;;;24.30;57.84;99518.56;2084097;28;20131;-67
2023/10/09 03:25:53;;;;;;;15.63;10.77;;;;;;;24.29;57.92;99517.75;2080836;28;20098;-68
2023/10/09 03:26:55;;;;;;;15.10;10.77;;;;;;;24.29;57.61;99515.03;2084581;28;20130;-67
2023/10/09 03:28:00;;;;;;;13.38;10.50;;;;;;;24.28;58.01;99518.78;2081261;28;20530;-66
2023/10/09 03:29:01;;;;;;;17.73;11.93;;;;;;;24.27;57.79;99521.72;2082959;28;20049;-68
2023/10/09 03:30:05;;;;;;;19.10;12.73;;;;;;;24.28;58.20;99518.78;2081642;28;20165;-67
2023/10/09 03:31:06;;;;;;;16.48;11.07;;;;;;;24.27;58.02;99522.56;2081114;28;20053;-67
2023/10/09 03:32:08;;;;;;;18.60;11.77;;;;;;;24.26;58.03;99518.16;2084154;28;20052;-67
2023/10/09 03:33:11;;;;;;;18.48;11.40;;;;;;;24.29;58.22;99515.03;2082864;28;20053;-69
2023/10/09 03:34:12;;;;;;;15.32;11.55;;;;;;;24.30;57.91;99516.69;2081405;28;20045;-69
2023/10/09 03:35:17;;;;;;;17.50;11.93;;;;;;;24.33;57.73;99509.16;2081908;28;20072;-69
2023/10/09 03:36:17;;;;;;;14.75;11.20;;;;;;;24.34;57.90;99513.53;2076513;28;20049;-69
2023/10/09 03:37:33;;;;;;;17.95;12.30;;;;;;;24.34;58.25;99513.53;2081072;28;20045;-69
2023/10/09 03:38:34;;;;;;;17.10;11.90;;;;;;;24.30;58.07;99516.69;2075900;28;20053;-69
2023/10/09 03:39:38;;;;;;;17.95;11.85;;;;;;;24.31;57.81;99515.63;2070145;28;20111;-69
2023/10/09 03:40:42;;;;;;;18.15;11.75;;;;;;;24.33;57.43;99512.72;2077301;28;20050;-69
2023/10/09 03:41:46;;;;;;;15.88;11.65;;;;;;;24.35;57.71;99517.91;2077901;28;20076;-69
2023/10/09 03:42:48;;;;;;;16.95;11.35;;;;;;;24.33;57.93;99518.13;2080369;28;20084;-69
2023/10/09 03:43:51;;;;;;;15.90;11.77;;;;;;;24.32;57.80;99513.75;2080637;28;20052;-69
2023/10/09 03:44:53;;;;;;;15.30;11.25;;;;;;;24.31;57.65;99517.50;2077067;28;20049;-69
2023/10/09 03:45:57;;;;;;;18.08;11.85;;;;;;;24.29;57.26;99515.03;2079362;28;20053;-69
2023/10/09 03:46:58;;;;;;;16.63;11.90;;;;;;;24.33;57.28;99509.16;2079810;28;20396;-69
2023/10/09 03:48:08;;;;;;;17.75;11.90;;;;;;;24.34;57.35;99527.09;2079630;28;20522;-69
2023/10/09 03:49:11;;;;;;;15.13;10.90;;;;;;;24.29;57.53;99515.03;2076102;28;20121;-69
2023/10/09 03:50:26;;;;;;;14.57;10.88;;;;;;;24.28;57.71;99513.34;2081544;28;20046;-68
2023/10/09 03:51:27;;;;;;;15.35;11.02;;;;;;;24.26;57.63;99510.03;2079868;28;20158;-69
2023/10/09 03:52:30;;;;;;;16.95;11.40;;;;;;;24.27;57.41;99519.84;2077954;28;20045;-69
2023/10/09 03:53:31;;;;;;;15.63;10.98;;;;;;;24.29;57.83;99514.19;2079409;28;20040;-69
2023/10/09 03:54:32;;;;;;;18.23;11.20;;;;;;;24.29;57.49;99516.88;2078794;28;20076;-69
2023/10/09 03:55:35;;;;;;;20.10;12.10;;;;;;;24.29;57.13;99519.59;2075666;28;20044;-69
2023/10/09 03:56:35;;;;;;;20.58;12.30;;;;;;;24.26;57.54;99520.88;2080497;28;21037;-69
2023/10/09 03:57:39;;;;;;;16.67;12.52;;;;;;;24.29;57.91;99517.75;2076808;28;20049;-69
2023/10/09 03:58:42;;;;;;;16.83;10.95;;;;;;;24.27;57.67;99519.84;2077625;28;20132;-69
2023/10/09 03:59:47;;;;;;;17.88;12.07;;;;;;;24.26;57.80;99517.34;2075284;28;20615;-69
2023/10/09 04:00:49;;;;;;;19.30;11.68;;;;;;;24.24;57.76;99517.56;2076640;28;21448;-68
2023/10/09 04:01:53;;;;;;;18.77;11.88;;;;;;;24.27;57.60;99519.84;2077025;28;20488;-69
2023/10/09 04:02:53;;;;;;;15.60;11.75;;;;;;;24.27;57.41;99514.41;2075679;28;20534;-68
2023/10/09 04:03:55;;;;;;;16.90;12.07;;;;;;;24.28;57.53;99520.66;2080503;28;20087;-68
2023/10/09 04:04:57;;;;;;;17.27;12.15;;;;;;;24.25;57.97;99515.69;2080438;28;20037;-68
2023/10/09 04:05:57;;;;;;;19.30;10.75;;;;;;;24.24;57.76;99520.28;2077981;28;20041;-69
2023/10/09 04:07:00;;;;;;;17.25;11.98;;;;;;;24.27;57.56;99510.88;2078090;28;20075;-69
2023/10/09 04:08:12;;;;;;;20.42;11.75;;;;;;;24.29;57.29;99508.75;2079637;28;20064;-69
2023/10/09 04:09:35;;;;;;;17.02;11.90;;;;;;;24.29;57.50;99508.75;2080020;28;20468;-68
2023/10/09 04:10:51;;;;;;;18.10;12.38;;;;;;;24.24;58.01;99514.84;2075993;28;20168;-69
2023/10/09 04:12:13;;;;;;;18.40;11.50;;;;;;;24.24;57.32;99509.44;2080863;28;20056;-69
2023/10/09 04:13:22;;;;;;;16.55;11.93;;;;;;;24.23;57.71;99509.63;2074584;28;20511;-69
2023/10/09 04:14:26;;;;;;;14.35;11.15;;;;;;;24.24;57.48;99509.44;2077177;28;20049;-68
2023/10/09 04:15:30;;;;;;;13.57;10.77;;;;;;;24.23;57.83;99510.47;2078184;28;20056;-69
2023/10/09 04:16:51;;;;;;;15.60;11.48;;;;;;;24.24;57.74;99514.03;2077009;28;20049;-68
2023/10/09 04:17:52;;;;;;;19.27;11.93;;;;;;;24.22;57.37;99500.69;2079166;28;20045;-69
2023/10/09 04:18:56;;;;;;;13.40;9.98;;;;;;;24.23;57.49;99501.50;2077821;28;20048;-69
2023/10/09 04:21:18;;;;;;;19.70;12.23;;;;;;;24.23;57.23;99505.03;2079274;28;20046;-68
2023/10/09 04:22:26;;;;;;;16.73;11.30;;;;;;;24.24;57.54;99509.44;2077897;28;20175;-69
2023/10/09 04:23:35;;;;;;;19.10;12.00;;;;;;;24.23;57.26;99505.03;2077836;28;20063;-68
2023/10/09 04:24:41;;;;;;;18.98;10.52;;;;;;;24.23;57.76;99504.22;2076299;28;20431;-69
2023/10/09 04:25:45;;;;;;;15.82;11.73;;;;;;;24.21;57.86;99500.88;2079401;28;20056;-69
2023/10/09 04:26:46;;;;;;;17.70;12.65;;;;;;;24.21;57.44;99501.75;2076595;28;20112;-68
2023/10/09 04:27:47;;;;;;;17.38;11.32;;;;;;;24.21;57.64;99500.88;2081022;28;20048;-68
2023/10/09 04:28:51;;;;;;;17.65;12.68;;;;;;;24.21;57.84;99507.16;2082369;28;21172;-68
2023/10/09 04:29:54;;;;;;;17.90;11.57;;;;;;;24.22;57.28;99508.81;2076132;28;20056;-68
2023/10/09 04:30:58;;;;;;;23.33;11.27;;;;;;;24.22;57.45;99508.81;2077176;28;20115;-69
2023/10/09 04:32:00;;;;;;;15.45;12.02;;;;;;;24.21;57.15;99503.59;2080115;28;20060;-68
2023/10/09 04:33:12;;;;;;;17.92;11.25;;;;;;;24.20;57.37;99510.91;2076922;28;20191;-69
2023/10/09 04:34:22;;;;;;;21.27;11.00;;;;;;;24.21;57.57;99506.31;2077166;28;20041;-68
2023/10/09 04:35:26;;;;;;;16.58;10.93;;;;;;;24.19;57.76;99509.25;2081574;28;20053;-68
2023/10/09 04:36:35;;;;;;;14.40;9.95;;;;;;;24.21;57.46;99509.88;2078725;28;20487;-69
2023/10/09 04:37:37;;;;;;;22.02;10.63;;;;;;;24.21;57.25;99501.75;2076308;28;20052;-68
2023/10/09 04:38:38;;;;;;;18.65;11.68;;;;;;;24.22;57.14;99500.69;2076428;28;20054;-69
2023/10/09 04:39:46;;;;;;;20.92;11.65;;;;;;;24.23;57.21;99507.75;2077750;28;20099;-69
2023/10/09 04:40:59;;;;;;;19.05;11.43;;;;;;;24.20;57.21;99505.50;2078806;28;20045;-69
2023/10/09 04:43:20;;;;;;;15.57;11.07;;;;;;;24.22;57.49;99513.41;2076789;28;20051;-69
2023/10/09 04:44:29;;;;;;;18.58;11.82;;;;;;;24.22;57.50;99513.41;2075369;28;20059;-68
2023/10/09 04:48:32;;;;;;;19.95;12.45;;;;;;;24.15;57.23;99513.44;2047055;28;20055;-69
2023/10/09 04:49:49;;;;;;;14.40;10.95;;;;;;;24.16;57.54;99519.72;2046553;28;20074;-68
2023/10/09 04:52:18;;;;;;;16.85;11.88;;;;;;;24.13;57.72;99518.28;2080315;28;20045;-68
2023/10/09 04:53:22;;;;;;;18.55;11.35;;;;;;;24.14;57.63;99521.81;2076547;28;20118;-69
2023/10/09 04:54:38;;;;;;;18.20;11.05;;;;;;;24.14;57.96;99517.22;2081377;28;20057;-68
2023/10/09 04:55:44;;;;;;;18.63;11.70;;;;;;;24.15;57.79;99516.16;2078003;28;20132;-69
2023/10/09 04:56:53;;;;;;;18.50;11.52;;;;;;;24.16;57.55;99522.44;2076936;28;20072;-69
2023/10/09 04:58:01;;;;;;;20.33;12.10;;;;;;;24.15;57.71;99518.84;2076165;28;22921;-68
2023/10/09 04:59:08;;;;;;;17.00;11.27;;;;;;;24.17;57.53;99519.47;2078385;28;20045;-69
2023/10/09 05:00:22;;;;;;;19.10;11.38;;;;;;;24.19;57.37;99514.69;2078077;28;20132;-68
2023/10/09 05:01:35;;;;;;;13.82;10.95;;;;;;;24.16;57.49;99512.41;2075274;28;20540;-68
2023/10/09 05:02:38;;;;;;;15.98;11.90;;;;;;;24.16;57.34;99520.53;2078979;28;20431;-69
2023/10/09 05:03:52;;;;;;;25.02;13.52;;;;;;;24.17;57.47;99519.47;2081646;28;20057;-69
2023/10/09 05:05:15;;;;;;;20.60;12.52;;;;;;;24.14;57.48;99510.97;2077650;28;20041;-68
2023/10/09 05:06:21;;;;;;;18.90;11.52;;;;;;;24.14;57.27;99521.81;2077140;28;20527;-69
2023/10/09 05:07:49;;;;;;;17.65;11.15;;;;;;;24.15;57.23;99518.03;2076351;28;20450;-69
2023/10/09 05:08:47;;;;;;;19.27;12.52;;;;;;;24.14;57.59;99519.91;2082406;28;20040;-68
2023/10/09 05:10:14;;;;;;;20.45;11.65;;;;;;;24.16;57.17;99517.84;2080040;28;20106;-68